Time;durP1;ratioP1;P1;durP2;ratioP2;P2;SDS_P1;SDS_P2;PMS_P1;PMS_P2;Temp;Humidity;BMP_temperature;BMP_pressure;BME280_temperature;BME280_humidity;BME280_pressure;Samples;Min_cycle;Max_cycle;Signal;HPM_P1;HPM_P2
2021/11/22 00:00:04;;;;;;;16.73;8.50;;;;;;;5.62;76.30;100452.41;5022299;28;20133;-82
2021/11/22 00:02:32;;;;;;;16.38;7.60;;;;;;;5.76;76.46;100454.59;5016077;28;20068;-82
2021/11/22 00:04:59;;;;;;;12.40;7.40;;;;;;;5.82;76.49;100459.00;5017659;28;20069;-82
2021/11/22 00:07:26;;;;;;;16.05;6.93;;;;;;;5.93;76.41;100457.81;5015395;28;20065;-83
2021/11/22 00:09:54;;;;;;;16.67;7.50;;;;;;;6.02;76.20;100458.91;5015534;28;20057;-83
2021/11/22 00:12:23;;;;;;;16.92;7.47;;;;;;;6.12;76.51;100468.28;5015620;28;20057;-83
2021/11/22 00:14:50;;;;;;;14.75;6.85;;;;;;;6.18;76.10;100467.16;5015237;28;20665;-83
2021/11/22 00:17:18;;;;;;;15.95;7.55;;;;;;;6.27;75.97;100470.94;5015642;28;20537;-83
2021/11/22 00:19:45;;;;;;;13.13;7.10;;;;;;;6.33;76.37;100471.75;5019739;28;20418;-84
2021/11/22 00:22:13;;;;;;;14.82;6.70;;;;;;;6.42;76.61;100473.59;5016326;28;20065;-82
2021/11/22 00:24:40;;;;;;;12.65;6.70;;;;;;;6.52;75.97;100481.03;5015828;28;20434;-83
2021/11/22 00:27:07;;;;;;;18.95;7.78;;;;;;;6.60;75.64;100472.13;5023905;28;20057;-82
2021/11/22 00:29:36;;;;;;;13.23;6.85;;;;;;;6.68;75.90;100470.69;5036248;28;20410;-82
2021/11/22 00:32:05;;;;;;;17.53;7.57;;;;;;;6.75;75.47;100470.34;5042605;28;20056;-83
2021/11/22 00:34:41;;;;;;;11.60;6.57;;;;;;;6.83;75.49;100472.50;5041151;28;20049;-82
2021/11/22 00:37:12;;;;;;;14.35;7.53;;;;;;;6.91;75.45;100472.72;5035753;28;20057;-83
2021/11/22 00:39:39;;;;;;;13.30;7.68;;;;;;;6.94;75.38;100476.84;5035505;28;20057;-82
2021/11/22 00:42:07;;;;;;;12.60;7.05;;;;;;;7.01;75.58;100479.25;5036249;28;20065;-83
2021/11/22 00:44:37;;;;;;;12.48;7.10;;;;;;;7.09;75.25;100478.63;5035524;28;20056;-83
2021/11/22 00:47:06;;;;;;;13.60;7.18;;;;;;;7.13;74.99;100481.66;5035460;28;20057;-83
2021/11/22 00:49:34;;;;;;;15.30;7.88;;;;;;;7.18;74.90;100490.75;5030030;28;20143;-82
2021/11/22 00:52:01;;;;;;;19.20;9.70;;;;;;;7.23;74.62;100490.69;5035807;28;20057;-83
2021/11/22 00:54:29;;;;;;;16.88;9.38;;;;;;;7.26;74.03;100508.66;5035045;28;20080;-83
2021/11/22 00:56:56;;;;;;;17.77;9.70;;;;;;;7.24;74.42;100506.19;5034534;28;20057;-84
2021/11/22 00:59:24;;;;;;;17.42;9.23;;;;;;;7.34;73.67;100505.28;5035129;28;20057;-83
2021/11/22 01:01:55;;;;;;;15.65;8.55;;;;;;;7.37;73.75;100509.41;5035510;28;20061;-83
2021/11/22 01:04:22;;;;;;;17.65;8.48;;;;;;;7.40;73.02;100517.13;5022750;28;20411;-83
2021/11/22 01:06:50;;;;;;;16.27;8.70;;;;;;;7.39;73.71;100515.47;5014518;28;20054;-83
2021/11/22 01:09:17;;;;;;;18.38;9.32;;;;;;;7.45;73.72;100517.06;5014657;28;20053;-83
2021/11/22 01:11:45;;;;;;;14.98;8.40;;;;;;;7.45;73.35;100526.22;5015739;28;20057;-83
2021/11/22 01:14:14;;;;;;;15.23;8.15;;;;;;;7.51;73.52;100532.53;5014537;28;20058;-83
2021/11/22 01:16:42;;;;;;;15.27;8.48;;;;;;;7.47;73.15;100532.28;5015195;28;20066;-83
2021/11/22 01:19:11;;;;;;;14.77;9.00;;;;;;;7.46;72.91;100541.75;5015297;28;20057;-84
2021/11/22 01:21:38;;;;;;;14.07;8.70;;;;;;;7.48;72.98;100544.22;5017596;28;20116;-83
2021/11/22 01:24:06;;;;;;;15.43;9.30;;;;;;;7.50;72.26;100553.06;5018921;28;20057;-83
2021/11/22 01:26:33;;;;;;;14.98;8.95;;;;;;;7.46;72.54;100558.38;5020825;28;20057;-83
2021/11/22 01:29:00;;;;;;;16.70;9.05;;;;;;;7.43;72.50;100563.66;5037727;28;20057;-83
2021/11/22 01:31:28;;;;;;;18.45;9.50;;;;;;;7.48;72.83;100560.84;5040498;28;20076;-82
2021/11/22 01:33:55;;;;;;;18.67;9.82;;;;;;;7.50;72.45;100561.38;5058251;28;20128;-83
2021/11/22 01:36:24;;;;;;;15.45;9.70;;;;;;;7.52;72.75;100556.38;5041103;28;20064;-83
2021/11/22 01:38:52;;;;;;;15.98;9.73;;;;;;;7.53;72.70;100561.59;5038198;28;20075;-83
2021/11/22 01:41:19;;;;;;;15.27;9.63;;;;;;;7.51;72.20;100565.78;5038037;28;20518;-83
2021/11/22 01:43:47;;;;;;;13.95;9.50;;;;;;;7.53;72.44;100569.09;5037572;28;20422;-83
2021/11/22 01:46:18;;;;;;;14.40;9.05;;;;;;;7.55;72.43;100564.09;5037459;28;20056;-84
2021/11/22 01:48:46;;;;;;;18.48;10.18;;;;;;;7.61;72.37;100562.94;5037355;28;20422;-84
2021/11/22 01:51:13;;;;;;;15.90;10.00;;;;;;;7.64;71.91;100564.28;5036870;28;20057;-84
2021/11/22 01:53:42;;;;;;;18.85;10.90;;;;;;;7.66;71.91;100568.41;5037646;28;20060;-83
2021/11/22 01:56:10;;;;;;;16.98;10.38;;;;;;;7.60;72.00;100580.69;5037288;28;20060;-83
2021/11/22 01:58:38;;;;;;;17.33;10.05;;;;;;;7.66;72.02;100585.03;5038138;28;20057;-84
2021/11/22 02:01:06;;;;;;;19.80;10.60;;;;;;;7.68;71.83;100588.34;5037693;28;20407;-82
2021/11/22 02:03:34;;;;;;;15.55;9.95;;;;;;;7.65;71.45;100590.91;5037766;28;20057;-84
2021/11/22 02:06:02;;;;;;;14.15;9.75;;;;;;;7.65;71.43;100604.75;5053957;28;20049;-82
2021/11/22 02:08:29;;;;;;;17.40;10.73;;;;;;;7.56;72.60;100612.88;5059050;28;20053;-82
2021/11/22 02:10:58;;;;;;;16.20;10.75;;;;;;;7.44;72.62;100615.22;5059155;28;20060;-83
2021/11/22 02:13:26;;;;;;;16.83;10.47;;;;;;;7.61;72.40;100615.59;5041716;28;20057;-83
2021/11/22 02:15:53;;;;;;;18.73;10.75;;;;;;;7.70;71.47;100610.25;5039506;28;21287;-82
2021/11/22 02:18:21;;;;;;;18.63;10.18;;;;;;;7.78;71.34;100614.34;5038321;28;20431;-82
2021/11/22 02:20:51;;;;;;;15.00;10.45;;;;;;;7.75;71.67;100626.00;5038586;28;20057;-83
2021/11/22 02:23:21;;;;;;;17.45;11.48;;;;;;;7.79;70.96;100622.38;5038801;28;20058;-83
2021/11/22 02:25:49;;;;;;;18.00;12.45;;;;;;;7.84;71.44;100629.81;5037706;28;20053;-83
2021/11/22 02:28:17;;;;;;;18.63;12.32;;;;;;;7.69;71.86;100633.56;5036563;28;20056;-82
2021/11/22 02:30:46;;;;;;;16.58;12.32;;;;;;;7.71;71.47;100632.16;5038421;28;20384;-83
2021/11/22 02:33:16;;;;;;;20.60;13.82;;;;;;;7.63;72.51;100638.31;5035994;28;20053;-83
2021/11/22 02:35:47;;;;;;;21.65;14.48;;;;;;;7.67;72.18;100639.38;5037296;28;20053;-83
2021/11/22 02:38:18;;;;;;;19.42;13.82;;;;;;;7.66;71.83;100654.34;5037537;28;20068;-83
2021/11/22 02:40:46;;;;;;;19.50;13.18;;;;;;;7.71;72.35;100662.66;5037601;28;20409;-83
2021/11/22 02:53:02;;;;;;;19.75;13.70;;;;;;;7.83;71.66;100669.75;5054617;28;20049;-85
2021/11/22 02:55:33;;;;;;;22.35;14.02;;;;;;;7.86;71.00;100666.41;5039819;28;20061;-86
2021/11/22 02:58:01;;;;;;;17.20;13.40;;;;;;;7.93;71.09;100672.44;5042619;28;20120;-85
2021/11/22 03:00:31;;;;;;;15.88;13.32;;;;;;;7.97;70.87;100672.69;5040181;28;20053;-85
2021/11/22 03:02:58;;;;;;;18.52;14.60;;;;;;;7.96;70.95;100680.19;5040182;28;20085;-85
2021/11/22 03:05:26;;;;;;;18.17;13.43;;;;;;;7.98;70.78;100677.94;5051851;28;20063;-85
2021/11/22 03:07:56;;;;;;;19.27;13.95;;;;;;;7.96;71.15;100671.84;5060168;28;20061;-85
2021/11/22 03:10:26;;;;;;;18.52;13.88;;;;;;;7.99;70.64;100682.34;5043868;28;20056;-85
2021/11/22 03:12:56;;;;;;;17.15;13.57;;;;;;;8.02;71.07;100681.78;5023965;28;20062;-85
2021/11/22 03:15:24;;;;;;;18.88;13.45;;;;;;;7.96;71.66;100682.94;5035672;28;20053;-85
2021/11/22 03:17:51;;;;;;;16.60;12.35;;;;;;;8.04;71.30;100689.78;5039296;28;20077;-85
2021/11/22 03:20:21;;;;;;;19.45;13.52;;;;;;;8.05;71.23;100686.75;5038985;28;20064;-85
2021/11/22 03:22:50;;;;;;;19.08;13.07;;;;;;;8.10;70.81;100697.78;5039881;28;20054;-85
2021/11/22 03:25:18;;;;;;;17.52;12.70;;;;;;;8.13;70.27;100699.16;5039342;28;20061;-85
2021/11/22 03:27:47;;;;;;;16.45;13.32;;;;;;;8.13;70.30;100707.47;5037876;28;20058;-83
2021/11/22 03:30:16;;;;;;;16.85;13.35;;;;;;;8.16;70.50;100715.22;5038004;28;20049;-85
2021/11/22 03:32:45;;;;;;;17.13;13.43;;;;;;;8.15;70.35;100710.78;5058049;28;20056;-85
2021/11/22 03:35:14;;;;;;;19.55;13.38;;;;;;;8.16;70.15;100708.84;5065309;28;20064;-85
2021/11/22 03:37:42;;;;;;;18.70;13.55;;;;;;;8.18;70.58;100712.97;5059266;28;20049;-85
2021/11/22 03:40:11;;;;;;;17.38;13.23;;;;;;;8.22;69.88;100716.81;5044819;28;20413;-85
2021/11/22 03:42:40;;;;;;;15.15;12.18;;;;;;;8.17;70.08;100716.03;5044943;28;20478;-85
2021/11/22 03:45:10;;;;;;;16.02;12.32;;;;;;;8.13;70.73;100721.34;5044203;28;20061;-84
2021/11/22 03:47:41;;;;;;;17.67;12.30;;;;;;;8.18;70.00;100715.75;5044843;28;20054;-85
2021/11/22 03:50:08;;;;;;;18.15;12.52;;;;;;;8.20;70.79;100715.47;5044933;28;20120;-85
2021/11/22 04:04:59;;;;;;;13.60;11.03;;;;;;;8.20;70.24;100748.75;5067756;23;20479;-68
2021/11/22 04:07:27;;;;;;;14.65;12.02;;;;;;;8.21;69.83;100762.34;5076775;28;20062;-68
2021/11/22 04:09:55;;;;;;;13.30;10.50;;;;;;;8.25;70.55;100768.13;5093476;28;20068;-68
2021/11/22 04:12:22;;;;;;;14.52;11.10;;;;;;;8.25;70.30;100770.91;5093158;28;20075;-68
2021/11/22 04:14:49;;;;;;;16.02;10.98;;;;;;;8.22;70.10;100772.31;5077734;28;20052;-68
2021/11/22 04:17:17;;;;;;;15.18;10.13;;;;;;;8.30;69.67;100777.22;5073004;28;20057;-68
2021/11/22 04:19:45;;;;;;;14.00;10.23;;;;;;;8.34;70.00;100785.81;5072975;28;20409;-68
2021/11/22 04:22:13;;;;;;;15.20;10.38;;;;;;;8.34;69.50;100789.41;5073090;28;20059;-68
2021/11/22 04:24:41;;;;;;;13.40;9.30;;;;;;;8.39;69.94;100787.72;5073232;28;20060;-68
2021/11/22 04:27:11;;;;;;;12.63;9.90;;;;;;;8.38;70.29;100795.22;5072412;28;20052;-68
2021/11/22 04:29:40;;;;;;;12.82;9.80;;;;;;;8.41;69.98;100791.06;5073016;28;20057;-68
2021/11/22 04:32:09;;;;;;;13.90;10.38;;;;;;;8.08;70.41;100793.50;5072973;28;20049;-68
2021/11/22 04:34:38;;;;;;;11.65;9.90;;;;;;;8.24;70.05;100799.78;5073371;28;20052;-68
2021/11/22 04:37:05;;;;;;;18.30;11.30;;;;;;;8.23;69.99;100795.34;5073273;28;20056;-68
2021/11/22 04:39:35;;;;;;;13.75;10.50;;;;;;;8.29;69.77;100806.13;5072816;28;20142;-68
2021/11/22 04:42:03;;;;;;;14.02;10.95;;;;;;;8.26;69.96;100808.63;5072799;28;20057;-68
2021/11/22 04:44:30;;;;;;;13.02;10.52;;;;;;;8.26;69.80;100814.19;5072247;28;20056;-68
2021/11/22 04:46:57;;;;;;;13.90;10.15;;;;;;;8.23;69.48;100818.38;5072448;28;20405;-68
2021/11/22 04:49:25;;;;;;;13.57;10.88;;;;;;;8.19;70.00;100820.06;5072380;28;20071;-68
2021/11/22 04:51:53;;;;;;;14.23;10.30;;;;;;;8.18;70.38;100814.81;5072957;28;20055;-68
2021/11/22 04:54:20;;;;;;;12.90;10.38;;;;;;;8.19;69.23;100822.84;5072582;28;20060;-68
2021/11/22 04:56:49;;;;;;;13.10;10.30;;;;;;;8.12;70.12;100828.72;5071621;28;20048;-68
2021/11/22 04:59:16;;;;;;;14.55;11.10;;;;;;;8.00;69.73;100831.03;5072088;28;20053;-68
2021/11/22 05:01:44;;;;;;;11.93;10.13;;;;;;;7.96;69.55;100823.56;5072574;28;20408;-68
2021/11/22 05:04:12;;;;;;;12.18;10.15;;;;;;;7.93;70.25;100836.06;5072001;28;20494;-68
2021/11/22 05:06:39;;;;;;;13.80;10.65;;;;;;;7.89;70.36;100844.13;5072523;28;20056;-68
2021/11/22 05:09:06;;;;;;;13.50;10.10;;;;;;;7.86;70.52;100838.34;5072902;28;20060;-68
2021/11/22 05:11:33;;;;;;;12.82;10.50;;;;;;;7.77;70.52;100838.13;5072774;28;20056;-68
2021/11/22 05:14:02;;;;;;;10.70;9.48;;;;;;;7.70;70.66;100848.69;5071658;28;20067;-68
2021/11/22 05:16:29;;;;;;;13.27;10.20;;;;;;;7.87;70.08;100842.75;5072224;28;20493;-68
2021/11/22 05:18:57;;;;;;;12.25;10.10;;;;;;;7.88;69.98;100844.44;5072187;28;20071;-69
2021/11/22 05:21:25;;;;;;;11.55;9.50;;;;;;;7.78;70.56;100858.38;5072318;28;20053;-68
2021/11/22 05:23:54;;;;;;;11.13;9.57;;;;;;;7.88;69.77;100856.34;5072077;28;20493;-68
2021/11/22 05:26:21;;;;;;;10.68;9.43;;;;;;;7.91;69.60;100858.53;5072116;28;20060;-68
2021/11/22 05:28:49;;;;;;;11.48;9.85;;;;;;;7.95;69.30;100869.06;5072071;28;20053;-68
2021/11/22 05:31:18;;;;;;;12.27;9.35;;;;;;;7.92;69.60;100876.84;5072131;28;20049;-68
2021/11/22 05:33:45;;;;;;;10.95;9.30;;;;;;;7.88;69.72;100874.94;5072183;28;20512;-69
2021/11/22 05:36:13;;;;;;;11.35;9.32;;;;;;;7.79;69.88;100873.88;5072093;28;20060;-69
2021/11/22 05:38:40;;;;;;;11.13;9.75;;;;;;;7.80;69.80;100886.63;5072592;28;20052;-68
2021/11/22 05:41:07;;;;;;;12.25;10.07;;;;;;;7.71;69.45;100892.78;5071926;28;20516;-68
2021/11/22 05:43:36;;;;;;;11.48;9.25;;;;;;;7.72;69.64;100893.59;5071170;28;20060;-68
2021/11/22 05:46:03;;;;;;;14.40;10.45;;;;;;;7.77;69.81;100901.06;5072170;28;20052;-69
2021/11/22 05:48:33;;;;;;;13.73;9.75;;;;;;;7.81;69.74;100908.53;5071459;28;20054;-69
2021/11/22 05:51:01;;;;;;;12.85;9.88;;;;;;;7.80;69.38;100917.13;5072147;28;20056;-69
2021/11/22 05:53:33;;;;;;;11.18;9.98;;;;;;;7.78;69.37;100920.19;5072140;28;20056;-69
2021/11/22 05:56:01;;;;;;;10.90;8.98;;;;;;;7.79;69.09;100921.00;5071665;28;20059;-69
2021/11/22 05:58:30;;;;;;;11.15;9.88;;;;;;;7.73;69.18;100932.16;5071840;28;20053;-69
2021/11/22 06:00:58;;;;;;;12.90;10.70;;;;;;;7.73;69.72;100934.91;5072027;28;20064;-69
2021/11/22 06:03:27;;;;;;;12.73;9.32;;;;;;;7.87;68.98;100937.06;5071513;28;20053;-69
2021/11/22 06:05:57;;;;;;;11.25;8.93;;;;;;;7.83;68.43;100933.19;5071584;28;20063;-69
2021/11/22 06:08:24;;;;;;;10.50;9.40;;;;;;;7.83;67.98;100939.59;5075575;28;20056;-69
2021/11/22 06:10:53;;;;;;;10.65;8.27;;;;;;;7.84;68.33;100934.88;5075782;28;20412;-69
2021/11/22 06:13:21;;;;;;;12.95;9.75;;;;;;;7.75;67.99;100933.78;5075281;28;20063;-69
2021/11/22 06:15:49;;;;;;;11.52;9.55;;;;;;;7.68;67.57;100947.97;5075301;28;20061;-68
2021/11/22 06:18:18;;;;;;;11.38;9.98;;;;;;;7.82;67.90;100948.19;5075529;28;20060;-69
2021/11/22 06:20:46;;;;;;;10.32;9.23;;;;;;;7.78;67.55;100953.47;5074524;28;20061;-69
2021/11/22 06:23:15;;;;;;;10.98;9.80;;;;;;;7.58;67.69;100948.84;5074806;28;20516;-69
2021/11/22 06:25:43;;;;;;;10.98;9.30;;;;;;;7.58;67.80;100956.31;5074697;28;20064;-69
2021/11/22 06:28:10;;;;;;;11.27;9.35;;;;;;;7.63;67.83;100954.34;5074209;28;20075;-69
2021/11/22 06:30:38;;;;;;;10.63;9.43;;;;;;;7.64;67.19;100964.34;5074715;28;20149;-69
2021/11/22 06:33:05;;;;;;;10.00;8.68;;;;;;;7.65;67.41;100966.00;5090299;28;20484;-69
2021/11/22 06:35:33;;;;;;;10.10;9.05;;;;;;;7.61;67.23;100964.91;5095021;28;20424;-69
2021/11/22 06:38:01;;;;;;;11.30;9.77;;;;;;;7.65;67.07;100965.19;5095467;28;20079;-69
2021/11/22 06:40:30;;;;;;;11.43;10.23;;;;;;;7.67;67.13;100972.09;5095001;28;20059;-69
2021/11/22 06:42:57;;;;;;;10.93;9.43;;;;;;;7.63;67.35;100984.84;5075806;28;20056;-69
2021/11/22 06:45:24;;;;;;;11.95;9.82;;;;;;;7.65;67.43;100987.34;5072815;28;20059;-69
2021/11/22 06:47:52;;;;;;;11.48;10.13;;;;;;;7.47;67.76;100992.38;5074345;28;20059;-69
2021/11/22 06:50:20;;;;;;;11.55;9.82;;;;;;;7.58;67.99;100992.34;5073003;28;20075;-69
2021/11/22 06:52:47;;;;;;;10.23;9.23;;;;;;;7.50;67.54;100999.31;5073551;28;20063;-69
2021/11/22 06:55:15;;;;;;;9.20;8.27;;;;;;;7.61;67.29;101006.50;5071720;28;20049;-68
2021/11/22 06:57:43;;;;;;;10.20;8.90;;;;;;;7.64;66.91;101002.31;5076068;28;20389;-68
2021/11/22 07:00:14;;;;;;;11.02;8.43;;;;;;;7.49;67.13;101011.50;5078466;28;20056;-68
2021/11/22 07:02:41;;;;;;;10.30;8.40;;;;;;;7.40;67.11;101021.50;5071259;28;20060;-68
2021/11/22 07:05:10;;;;;;;9.32;8.32;;;;;;;7.24;68.04;101017.91;5052691;28;20502;-68
2021/11/22 07:07:38;;;;;;;9.10;7.77;;;;;;;7.43;67.28;101026.47;5056092;28;20064;-68
2021/11/22 07:10:07;;;;;;;10.02;8.25;;;;;;;7.32;66.78;101023.72;5048960;28;20072;-68
2021/11/22 07:12:34;;;;;;;9.27;8.27;;;;;;;7.49;66.39;101039.22;5051753;28;20049;-68
2021/11/22 07:15:04;;;;;;;8.93;7.97;;;;;;;7.52;66.68;101039.50;5058419;28;20053;-68
2021/11/22 07:17:33;;;;;;;;;;;;;;;7.50;66.71;101038.94;5052600;28;20785;-68
2021/11/22 07:20:00;;;;;;;9.30;8.10;;;;;;;7.51;66.27;101050.84;5052955;28;19920;-68
2021/11/22 07:22:28;;;;;;;9.80;8.75;;;;;;;7.48;66.65;101059.75;5052995;28;20063;-68
2021/11/22 07:24:55;;;;;;;10.50;9.20;;;;;;;7.21;67.47;101068.34;5069131;28;20490;-68
2021/11/22 07:27:26;;;;;;;11.80;9.02;;;;;;;7.43;67.35;101070.81;5063039;28;20056;-68
2021/11/22 07:29:55;;;;;;;10.85;9.75;;;;;;;7.51;67.16;101075.81;5067497;28;20063;-68
2021/11/22 07:32:27;;;;;;;11.50;9.82;;;;;;;7.59;67.15;101086.34;5060598;28;20056;-68
2021/11/22 07:34:55;;;;;;;11.70;10.00;;;;;;;7.59;66.85;101094.66;5052742;28;20068;-68
2021/11/22 07:37:23;;;;;;;12.77;10.27;;;;;;;7.64;66.42;101088.25;5051051;28;20538;-68
2021/11/22 07:39:52;;;;;;;15.05;10.60;;;;;;;7.37;67.91;101108.81;5053692;28;20056;-68
2021/11/22 07:42:19;;;;;;;12.73;10.63;;;;;;;7.59;66.78;101107.69;5054416;28;20077;-68
2021/11/22 07:44:47;;;;;;;13.80;10.75;;;;;;;7.68;66.43;101108.78;5058419;28;20518;-68
2021/11/22 07:47:15;;;;;;;11.77;10.57;;;;;;;7.71;66.39;101109.06;5053259;28;20057;-68
2021/11/22 07:49:44;;;;;;;12.07;10.60;;;;;;;7.76;66.29;101115.72;5040401;28;20495;-68
2021/11/22 07:52:11;;;;;;;13.50;11.37;;;;;;;7.79;66.32;101115.13;5048915;28;20425;-69
2021/11/22 07:54:38;;;;;;;18.40;13.50;;;;;;;7.83;66.27;101121.78;5053478;28;20777;-68
2021/11/22 07:57:06;;;;;;;15.98;11.93;;;;;;;7.87;65.84;101128.44;5065850;28;20394;-68
2021/11/22 07:59:34;;;;;;;13.43;10.98;;;;;;;7.86;66.21;101135.09;5049989;28;20068;-68
2021/11/22 08:02:02;;;;;;;14.60;12.02;;;;;;;7.91;66.23;101140.63;5067800;28;20072;-68
2021/11/22 08:04:30;;;;;;;12.57;10.38;;;;;;;7.86;66.32;101138.72;5051943;28;20048;-68
2021/11/22 08:07:01;;;;;;;14.15;11.15;;;;;;;7.87;65.86;101151.47;5055141;28;20060;-68
2021/11/22 08:09:31;;;;;;;12.30;9.90;;;;;;;7.96;66.42;101153.66;5052019;28;20053;-69
2021/11/22 08:12:24;;;;;;;39.72;24.77;;;;;;;8.00;66.29;101155.63;5054975;28;20057;-68
2021/11/22 08:14:52;;;;;;;17.80;15.18;;;;;;;7.97;66.93;101161.72;5051224;28;20394;-39
2021/11/22 08:17:23;;;;;;;13.32;11.75;;;;;;;7.68;67.31;101161.47;5046484;28;20056;-64
2021/11/22 08:19:50;;;;;;;13.25;10.40;;;;;;;7.92;66.78;101162.56;5049347;28;20545;-64
2021/11/22 08:22:21;;;;;;;12.35;10.27;;;;;;;8.08;66.34;101163.38;5050937;28;20057;-64
2021/11/22 08:24:52;;;;;;;11.95;10.55;;;;;;;8.23;64.97;101165.28;5047758;28;20068;-64
2021/11/22 08:27:22;;;;;;;11.15;10.00;;;;;;;8.24;64.84;101166.09;5050884;28;20057;-64
2021/11/22 08:29:51;;;;;;;9.45;8.48;;;;;;;8.25;65.50;101168.59;5048800;28;20057;-64
2021/11/22 08:32:19;;;;;;;10.25;9.10;;;;;;;8.34;64.23;101171.63;5069776;28;20056;-64
2021/11/22 08:34:47;;;;;;;9.52;8.52;;;;;;;8.01;65.59;101187.78;5071132;28;20056;-64
2021/11/22 08:37:15;;;;;;;9.85;8.25;;;;;;;8.13;64.58;101191.09;5069327;28;20056;-64
2021/11/22 08:39:44;;;;;;;9.73;8.30;;;;;;;8.29;64.10;101193.81;5066549;28;20045;-64
2021/11/22 08:42:12;;;;;;;10.30;8.70;;;;;;;8.16;64.57;101194.41;5068877;28;20413;-64
2021/11/22 08:44:40;;;;;;;9.57;8.57;;;;;;;8.27;63.47;101196.91;5070989;28;20123;-64
2021/11/22 08:47:09;;;;;;;9.55;8.65;;;;;;;8.21;64.05;101203.56;5067899;28;20052;-64
2021/11/22 08:49:38;;;;;;;9.32;8.35;;;;;;;8.28;64.02;101200.50;5068478;28;20049;-64
2021/11/22 08:52:06;;;;;;;9.90;8.95;;;;;;;8.33;63.59;101204.06;5069526;28;20059;-64
2021/11/22 08:54:33;;;;;;;10.00;8.43;;;;;;;8.42;63.50;101209.09;5069776;28;20057;-64
2021/11/22 08:57:02;;;;;;;9.60;8.48;;;;;;;8.45;63.70;101203.81;5068858;28;20516;-64
2021/11/22 08:59:30;;;;;;;10.50;8.17;;;;;;;8.42;63.33;101207.16;5067665;28;20044;-64
2021/11/22 09:01:57;;;;;;;10.25;8.77;;;;;;;8.30;63.39;101206.59;5070769;28;20486;-65
2021/11/22 09:04:26;;;;;;;9.10;8.20;;;;;;;8.30;63.31;101212.16;5066205;28;20052;-65
2021/11/22 09:06:54;;;;;;;8.52;7.65;;;;;;;8.43;62.91;101216.31;5061566;28;20389;-65
2021/11/22 09:09:21;;;;;;;8.88;7.97;;;;;;;8.54;62.65;101213.22;5069925;28;20059;-65
2021/11/22 09:11:49;;;;;;;9.35;8.30;;;;;;;8.56;62.46;101212.94;5070464;28;20060;-65
2021/11/22 09:14:18;;;;;;;10.55;9.50;;;;;;;8.56;62.28;101212.94;5071470;28;20052;-65
2021/11/22 09:16:45;;;;;;;10.20;9.10;;;;;;;8.59;62.06;101222.63;5069169;28;20052;-65
2021/11/22 09:19:14;;;;;;;8.52;7.68;;;;;;;8.67;61.80;101217.38;5067615;28;20056;-65
2021/11/22 09:21:41;;;;;;;8.60;7.80;;;;;;;8.54;60.95;101231.81;5069502;28;20432;-63
2021/11/22 09:24:09;;;;;;;8.25;7.45;;;;;;;8.63;61.12;101240.41;5071110;28;20643;-63
2021/11/22 09:26:37;;;;;;;9.55;8.40;;;;;;;8.72;60.56;101234.00;5070234;28;20424;-63
2021/11/22 09:29:05;;;;;;;8.32;7.53;;;;;;;8.76;60.50;101238.97;5069994;28;20052;-63
2021/11/22 09:31:35;;;;;;;7.18;6.47;;;;;;;8.83;60.11;101245.88;5073428;28;20060;-64
2021/11/22 09:34:02;;;;;;;;;;;;;;;8.72;60.28;101263.72;5086733;28;20052;-64
2021/11/22 09:36:30;;;;;;;8.05;6.32;;;;;;;8.88;60.34;101258.94;5068462;28;19921;-64
2021/11/22 09:38:57;;;;;;;7.22;5.82;;;;;;;8.73;59.98;101262.59;5071361;28;20056;-64
2021/11/22 09:41:27;;;;;;;8.02;6.00;;;;;;;8.93;60.20;101256.16;5066901;28;20053;-64
2021/11/22 09:43:56;;;;;;;7.57;5.38;;;;;;;8.92;60.15;101260.88;5069743;28;20416;-64
2021/11/22 09:46:24;;;;;;;5.78;4.95;;;;;;;8.99;60.06;101266.13;5074496;28;20060;-64
2021/11/22 09:48:54;;;;;;;5.50;5.00;;;;;;;9.13;59.62;101267.19;5075765;28;20052;-64
2021/11/22 09:51:21;;;;;;;6.50;4.90;;;;;;;9.35;58.78;101266.78;5068982;28;20060;-64
2021/11/22 09:53:48;;;;;;;5.82;5.22;;;;;;;9.71;58.88;101266.53;5072657;28;20067;-64
2021/11/22 09:56:16;;;;;;;7.00;5.70;;;;;;;10.23;57.20;101271.72;5072668;28;20056;-64
2021/11/22 09:58:44;;;;;;;5.10;4.50;;;;;;;10.43;55.89;101271.53;5071461;28;20052;-64
2021/11/22 10:01:15;;;;;;;6.50;4.68;;;;;;;10.74;55.00;101268.41;5072291;28;20057;-64
2021/11/22 10:03:43;;;;;;;5.88;3.88;;;;;;;11.21;53.54;101268.69;5062869;28;20585;-65
2021/11/22 10:06:12;;;;;;;4.00;3.60;;;;;;;11.61;52.61;101267.25;5059100;28;20417;-65
2021/11/22 10:08:41;;;;;;;5.65;4.97;;;;;;;11.88;51.85;101269.38;5069264;28;20068;-65
2021/11/22 10:11:12;;;;;;;7.20;5.05;;;;;;;12.31;50.60;101277.63;5069777;28;20056;-65
2021/11/22 10:13:42;;;;;;;6.03;5.38;;;;;;;11.71;51.94;101267.13;5052284;28;20071;-65
2021/11/22 10:16:25;;;;;;;8.95;6.50;;;;;;;12.78;49.50;101260.81;5044748;28;20060;-65
2021/11/22 10:18:55;;;;;;;7.35;5.90;;;;;;;15.18;44.67;101256.03;5054228;28;20053;-65
2021/11/22 10:21:26;;;;;;;5.63;5.13;;;;;;;17.50;40.20;101249.75;5056561;28;20060;-65
2021/11/22 10:24:03;;;;;;;5.30;4.80;;;;;;;18.65;37.26;101247.19;5055424;28;20068;-65
2021/11/22 10:26:38;;;;;;;5.70;4.55;;;;;;;20.03;33.57;101254.00;5064256;28;20527;-65
2021/11/22 10:29:08;;;;;;;10.10;9.02;;;;;;;20.88;32.99;101251.84;5053851;28;20060;-65
2021/11/22 10:31:37;;;;;;;5.60;5.07;;;;;;;21.78;31.38;101250.31;5049245;28;20060;-63
2021/11/22 10:34:06;;;;;;;4.75;4.35;;;;;;;22.83;29.58;101254.81;5062509;28;20079;-65
2021/11/22 10:36:37;;;;;;;4.50;4.03;;;;;;;23.60;28.01;101252.78;5052328;28;20053;-65
2021/11/22 10:39:06;;;;;;;4.10;3.30;;;;;;;23.55;27.58;101253.09;5057128;28;20052;-65
2021/11/22 10:41:36;;;;;;;4.70;4.07;;;;;;;24.78;26.42;101255.38;5070937;28;20067;-66
2021/11/22 10:44:05;;;;;;;4.18;3.38;;;;;;;23.50;27.17;101268.47;5053288;28;20048;-64
2021/11/22 10:46:34;;;;;;;;;;;;;;;21.14;30.27;101263.78;5054342;28;20053;-64
2021/11/22 10:49:12;;;;;;;4.05;3.65;;;;;;;20.44;31.44;101273.72;5054722;28;19921;-64
2021/11/22 10:51:44;;;;;;;4.82;4.43;;;;;;;22.70;28.54;101262.69;5055667;28;20048;-64
2021/11/22 10:54:14;;;;;;;4.28;3.70;;;;;;;24.07;26.33;101253.41;5049381;28;20494;-64
2021/11/22 10:56:44;;;;;;;5.13;4.10;;;;;;;24.81;25.51;101257.47;5053549;28;20064;-64
2021/11/22 10:59:14;;;;;;;4.13;3.83;;;;;;;25.51;23.84;101255.56;5070773;28;20412;-64
2021/11/22 11:01:43;;;;;;;4.22;3.83;;;;;;;26.06;23.48;101248.91;5052382;28;20064;-64
2021/11/22 11:04:16;;;;;;;3.95;3.65;;;;;;;25.98;23.50;101256.66;5064732;28;20077;-64
2021/11/22 11:06:58;;;;;;;4.50;4.10;;;;;;;24.39;24.72;101256.63;5065582;28;20433;-65
2021/11/22 11:09:29;;;;;;;4.63;4.22;;;;;;;23.99;25.73;101263.88;5053696;28;20056;-65
2021/11/22 11:12:03;;;;;;;4.30;3.78;;;;;;;25.04;24.75;101263.75;5053095;28;20049;-65
2021/11/22 11:14:31;;;;;;;4.10;3.80;;;;;;;26.78;22.49;101257.69;5060444;28;20064;-65
2021/11/22 11:17:14;;;;;;;6.07;4.90;;;;;;;27.32;22.17;101259.34;5050188;28;20060;-65
2021/11/22 11:19:42;;;;;;;5.22;4.72;;;;;;;28.11;21.12;101269.75;5052819;28;20064;-65
2021/11/22 11:22:13;;;;;;;5.22;4.72;;;;;;;26.75;22.41;101267.06;5050473;28;20057;-65
2021/11/22 11:24:41;;;;;;;7.43;4.85;;;;;;;24.43;25.13;101271.72;5053228;28;20356;-65
2021/11/22 11:27:09;;;;;;;5.78;4.72;;;;;;;22.77;26.95;101278.22;5054074;28;20053;-65
2021/11/22 11:29:37;;;;;;;6.68;4.95;;;;;;;21.09;29.04;101290.41;5052363;28;20072;-65
2021/11/22 11:32:05;;;;;;;4.80;4.40;;;;;;;19.54;30.88;101292.84;5056306;28;20056;-65
2021/11/22 11:34:35;;;;;;;4.57;4.18;;;;;;;18.91;32.34;101308.16;5052439;28;21791;-65
2021/11/22 11:37:14;;;;;;;4.85;4.40;;;;;;;19.63;31.09;101305.69;5056085;28;20057;-64
2021/11/22 11:40:07;;;;;;;5.55;4.65;;;;;;;22.02;27.82;101298.22;5054321;28;20040;-64
2021/11/22 11:43:15;;;;;;;4.82;4.30;;;;;;;24.05;24.96;101295.66;5056410;28;20060;-64
2021/11/22 11:45:45;;;;;;;4.95;4.45;;;;;;;24.90;23.96;101287.28;5034278;28;20060;-64
2021/11/22 11:48:21;;;;;;;4.22;3.80;;;;;;;25.31;23.15;101290.06;5059175;28;20079;-64
2021/11/22 11:50:49;;;;;;;4.50;3.67;;;;;;;25.52;23.36;101286.53;5055260;28;20053;-65
2021/11/22 11:53:20;;;;;;;3.70;3.40;;;;;;;26.45;21.79;101291.06;5057267;28;20056;-65